sim
Sign-in with your pilot id or email,
or register
Callsign
Passwort

Schedule Details

Flight Number: EWG1813
Departure: Fuerteventura Airport (GCFV) at 10:55
Arrival: Munich Airport (EDDM) at 15:20
Route: Eurowings Passenger Schedule. Enter filed route here before submitting Pirep.

Weather Information
Getting current METAR information for GCFV 260830Z 03016KT 9999 SCT015 24/21 Q1021
Getting current METAR information for EDDM 260820Z 27015KT 9999 SCT019 BKN028 08/05 Q1000 TEMPO 26015G25KT

Schedule Frequency

Route Map